sensor_id;sensor_type;location;lat;lon;timestamp;P1;P2;P0
71872;PMS5003;59745;52.924;-2.388;2022-07-05T00:02:47;4;4;
71872;PMS5003;59745;52.924;-2.388;2022-07-05T00:05:11;5;5;
71872;PMS5003;59745;52.924;-2.388;2022-07-05T00:07:36;4;3;
71872;PMS5003;59745;52.924;-2.388;2022-07-05T00:10:02;5;5;
71872;PMS5003;59745;52.924;-2.388;2022-07-05T00:12:27;4;4;
71872;PMS5003;59745;52.924;-2.388;2022-07-05T00:14:52;4;4;
71872;PMS5003;59745;52.924;-2.388;2022-07-05T00:17:17;5;5;
71872;PMS5003;59745;52.924;-2.388;2022-07-05T00:19:42;4;4;
71872;PMS5003;59745;52.924;-2.388;2022-07-05T00:22:07;3;3;
71872;PMS5003;59745;52.924;-2.388;2022-07-05T00:24:32;4;4;
71872;PMS5003;59745;52.924;-2.388;2022-07-05T00:26:57;2;2;
71872;PMS5003;59745;52.924;-2.388;2022-07-05T00:29:23;2;2;
71872;PMS5003;59745;52.924;-2.388;2022-07-05T00:31:48;5;4;
71872;PMS5003;59745;52.924;-2.388;2022-07-05T00:34:13;4;4;
71872;PMS5003;59745;52.924;-2.388;2022-07-05T00:36:38;6;5;
71872;PMS5003;59745;52.924;-2.388;2022-07-05T00:39:04;7;5;
71872;PMS5003;59745;52.924;-2.388;2022-07-05T00:41:28;3;3;
71872;PMS5003;59745;52.924;-2.388;2022-07-05T00:43:54;4;4;
71872;PMS5003;59745;52.924;-2.388;2022-07-05T00:46:19;5;4;
71872;PMS5003;59745;52.924;-2.388;2022-07-05T00:48:44;5;4;
71872;PMS5003;59745;52.924;-2.388;2022-07-05T00:51:09;4;3;
71872;PMS5003;59745;52.924;-2.388;2022-07-05T00:53:34;4;4;
71872;PMS5003;59745;52.924;-2.388;2022-07-05T00:55:59;4;4;
71872;PMS5003;59745;52.924;-2.388;2022-07-05T00:58:24;2;2;
71872;PMS5003;59745;52.924;-2.388;2022-07-05T01:00:50;4;4;
71872;PMS5003;59745;52.924;-2.388;2022-07-05T01:03:15;4;4;
71872;PMS5003;59745;52.924;-2.388;2022-07-05T01:05:40;4;4;
71872;PMS5003;59745;52.924;-2.388;2022-07-05T01:08:05;2;2;
71872;PMS5003;59745;52.924;-2.388;2022-07-05T01:10:30;4;3;
71872;PMS5003;59745;52.924;-2.388;2022-07-05T01:12:55;3;3;
71872;PMS5003;59745;52.924;-2.388;2022-07-05T01:15:21;3;3;
71872;PMS5003;59745;52.924;-2.388;2022-07-05T01:17:46;3;3;
71872;PMS5003;59745;52.924;-2.388;2022-07-05T01:20:11;2;2;
71872;PMS5003;59745;52.924;-2.388;2022-07-05T01:25:01;4;4;
71872;PMS5003;59745;52.924;-2.388;2022-07-05T01:27:26;5;4;
71872;PMS5003;59745;52.924;-2.388;2022-07-05T01:29:51;3;3;
71872;PMS5003;59745;52.924;-2.388;2022-07-05T01:32:17;3;3;
71872;PMS5003;59745;52.924;-2.388;2022-07-05T01:34:42;5;4;
71872;PMS5003;59745;52.924;-2.388;2022-07-05T01:37:07;3;3;
71872;PMS5003;59745;52.924;-2.388;2022-07-05T01:39:32;3;2;
71872;PMS5003;59745;52.924;-2.388;2022-07-05T01:41:57;2;2;
71872;PMS5003;59745;52.924;-2.388;2022-07-05T01:44:22;2;2;
71872;PMS5003;59745;52.924;-2.388;2022-07-05T01:46:48;4;4;
71872;PMS5003;59745;52.924;-2.388;2022-07-05T01:49:13;6;6;
71872;PMS5003;59745;52.924;-2.388;2022-07-05T01:51:39;4;4;
71872;PMS5003;59745;52.924;-2.388;2022-07-05T01:54:03;5;5;
71872;PMS5003;59745;52.924;-2.388;2022-07-05T01:56:28;4;4;
71872;PMS5003;59745;52.924;-2.388;2022-07-05T01:58:53;2;2;
71872;PMS5003;59745;52.924;-2.388;2022-07-05T02:03:43;3;3;
71872;PMS5003;59745;52.924;-2.388;2022-07-05T02:06:09;6;6;
71872;PMS5003;59745;52.924;-2.388;2022-07-05T02:08:34;4;4;
71872;PMS5003;59745;52.924;-2.388;2022-07-05T02:11:00;4;4;
71872;PMS5003;59745;52.924;-2.388;2022-07-05T02:13:25;4;4;
71872;PMS5003;59745;52.924;-2.388;2022-07-05T02:15:50;4;4;
71872;PMS5003;59745;52.924;-2.388;2022-07-05T02:18:15;4;4;
71872;PMS5003;59745;52.924;-2.388;2022-07-05T02:20:40;3;3;
71872;PMS5003;59745;52.924;-2.388;2022-07-05T02:23:05;4;4;
71872;PMS5003;59745;52.924;-2.388;2022-07-05T02:25:30;4;4;
71872;PMS5003;59745;52.924;-2.388;2022-07-05T02:27:56;4;4;
71872;PMS5003;59745;52.924;-2.388;2022-07-05T02:30:21;3;3;
71872;PMS5003;59745;52.924;-2.388;2022-07-05T02:32:46;5;5;
71872;PMS5003;59745;52.924;-2.388;2022-07-05T02:35:11;4;4;
71872;PMS5003;59745;52.924;-2.388;2022-07-05T02:37:36;3;3;
71872;PMS5003;59745;52.924;-2.388;2022-07-05T02:40:02;4;3;
71872;PMS5003;59745;52.924;-2.388;2022-07-05T02:42:26;2;2;
71872;PMS5003;59745;52.924;-2.388;2022-07-05T02:44:52;5;4;
71872;PMS5003;59745;52.924;-2.388;2022-07-05T02:47:17;5;4;
71872;PMS5003;59745;52.924;-2.388;2022-07-05T02:49:42;4;4;
71872;PMS5003;59745;52.924;-2.388;2022-07-05T02:52:07;5;4;
71872;PMS5003;59745;52.924;-2.388;2022-07-05T02:56:57;4;4;
71872;PMS5003;59745;52.924;-2.388;2022-07-05T02:59:23;5;3;
71872;PMS5003;59745;52.924;-2.388;2022-07-05T03:01:48;4;4;
71872;PMS5003;59745;52.924;-2.388;2022-07-05T03:04:13;3;3;
71872;PMS5003;59745;52.924;-2.388;2022-07-05T03:06:38;5;4;
71872;PMS5003;59745;52.924;-2.388;2022-07-05T03:09:03;3;2;
71872;PMS5003;59745;52.924;-2.388;2022-07-05T03:11:28;4;4;
71872;PMS5003;59745;52.924;-2.388;2022-07-05T03:13:53;3;3;
71872;PMS5003;59745;52.924;-2.388;2022-07-05T03:16:19;2;2;
71872;PMS5003;59745;52.924;-2.388;2022-07-05T03:18:44;4;3;
71872;PMS5003;59745;52.924;-2.388;2022-07-05T03:21:09;2;2;
71872;PMS5003;59745;52.924;-2.388;2022-07-05T03:23:34;5;4;
71872;PMS5003;59745;52.924;-2.388;2022-07-05T03:25:59;3;3;
71872;PMS5003;59745;52.924;-2.388;2022-07-05T03:28:25;4;4;
71872;PMS5003;59745;52.924;-2.388;2022-07-05T03:30:50;2;2;
71872;PMS5003;59745;52.924;-2.388;2022-07-05T03:33:15;1;1;
71872;PMS5003;59745;52.924;-2.388;2022-07-05T03:35:40;3;3;
71872;PMS5003;59745;52.924;-2.388;2022-07-05T03:38:05;3;3;
71872;PMS5003;59745;52.924;-2.388;2022-07-05T03:40:30;3;3;
71872;PMS5003;59745;52.924;-2.388;2022-07-05T03:42:56;3;3;
71872;PMS5003;59745;52.924;-2.388;2022-07-05T03:45:21;3;3;
71872;PMS5003;59745;52.924;-2.388;2022-07-05T03:47:46;3;3;
71872;PMS5003;59745;52.924;-2.388;2022-07-05T03:50:11;3;3;
71872;PMS5003;59745;52.924;-2.388;2022-07-05T03:52:36;6;4;
71872;PMS5003;59745;52.924;-2.388;2022-07-05T03:55:02;2;2;
71872;PMS5003;59745;52.924;-2.388;2022-07-05T03:57:27;4;4;
71872;PMS5003;59745;52.924;-2.388;2022-07-05T03:59:52;3;3;
71872;PMS5003;59745;52.924;-2.388;2022-07-05T04:02:17;4;4;
71872;PMS5003;59745;52.924;-2.388;2022-07-05T04:04:42;5;5;
71872;PMS5003;59745;52.924;-2.388;2022-07-05T04:07:07;4;4;
71872;PMS5003;59745;52.924;-2.388;2022-07-05T04:09:32;7;7;
71872;PMS5003;59745;52.924;-2.388;2022-07-05T04:11:58;3;3;
71872;PMS5003;59745;52.924;-2.388;2022-07-05T04:14:23;5;5;
71872;PMS5003;59745;52.924;-2.388;2022-07-05T04:16:48;3;3;
71872;PMS5003;59745;52.924;-2.388;2022-07-05T04:19:13;3;3;
71872;PMS5003;59745;52.924;-2.388;2022-07-05T04:21:38;5;4;
71872;PMS5003;59745;52.924;-2.388;2022-07-05T04:24:04;3;3;
71872;PMS5003;59745;52.924;-2.388;2022-07-05T04:26:29;4;3;
71872;PMS5003;59745;52.924;-2.388;2022-07-05T04:28:54;4;3;
71872;PMS5003;59745;52.924;-2.388;2022-07-05T04:31:19;7;7;
71872;PMS5003;59745;52.924;-2.388;2022-07-05T04:33:44;5;4;
71872;PMS5003;59745;52.924;-2.388;2022-07-05T04:36:09;2;2;
71872;PMS5003;59745;52.924;-2.388;2022-07-05T04:38:34;3;3;
71872;PMS5003;59745;52.924;-2.388;2022-07-05T04:41:00;4;3;
71872;PMS5003;59745;52.924;-2.388;2022-07-05T04:43:25;6;5;
71872;PMS5003;59745;52.924;-2.388;2022-07-05T04:45:50;3;3;
71872;PMS5003;59745;52.924;-2.388;2022-07-05T04:48:15;3;3;
71872;PMS5003;59745;52.924;-2.388;2022-07-05T04:50:40;3;3;
71872;PMS5003;59745;52.924;-2.388;2022-07-05T04:53:06;3;3;
71872;PMS5003;59745;52.924;-2.388;2022-07-05T04:55:31;4;3;
71872;PMS5003;59745;52.924;-2.388;2022-07-05T04:57:56;4;4;
71872;PMS5003;59745;52.924;-2.388;2022-07-05T05:00:21;3;3;
71872;PMS5003;59745;52.924;-2.388;2022-07-05T05:02:46;2;2;
71872;PMS5003;59745;52.924;-2.388;2022-07-05T05:05:12;2;2;
71872;PMS5003;59745;52.924;-2.388;2022-07-05T05:07:39;2;2;
71872;PMS5003;59745;52.924;-2.388;2022-07-05T05:10:02;2;1;
71872;PMS5003;59745;52.924;-2.388;2022-07-05T05:12:27;5;3;
71872;PMS5003;59745;52.924;-2.388;2022-07-05T05:14:52;3;3;
71872;PMS5003;59745;52.924;-2.388;2022-07-05T05:17:17;3;3;
71872;PMS5003;59745;52.924;-2.388;2022-07-05T05:19:42;1;1;
71872;PMS5003;59745;52.924;-2.388;2022-07-05T05:22:08;2;2;
71872;PMS5003;59745;52.924;-2.388;2022-07-05T05:24:33;2;1;
71872;PMS5003;59745;52.924;-2.388;2022-07-05T05:26:58;2;2;
71872;PMS5003;59745;52.924;-2.388;2022-07-05T05:29:23;3;2;
71872;PMS5003;59745;52.924;-2.388;2022-07-05T05:31:48;1;1;
71872;PMS5003;59745;52.924;-2.388;2022-07-05T05:34:13;1;0;
71872;PMS5003;59745;52.924;-2.388;2022-07-05T05:36:38;3;3;
71872;PMS5003;59745;52.924;-2.388;2022-07-05T05:39:04;4;2;
71872;PMS5003;59745;52.924;-2.388;2022-07-05T05:41:29;3;2;
71872;PMS5003;59745;52.924;-2.388;2022-07-05T05:43:54;2;1;
71872;PMS5003;59745;52.924;-2.388;2022-07-05T05:46:19;2;2;
71872;PMS5003;59745;52.924;-2.388;2022-07-05T05:48:44;2;2;
71872;PMS5003;59745;52.924;-2.388;2022-07-05T05:51:09;4;2;
71872;PMS5003;59745;52.924;-2.388;2022-07-05T05:53:34;3;1;
71872;PMS5003;59745;52.924;-2.388;2022-07-05T05:55:59;2;2;
71872;PMS5003;59745;52.924;-2.388;2022-07-05T05:58:25;1;1;
71872;PMS5003;59745;52.924;-2.388;2022-07-05T06:00:50;2;2;
71872;PMS5003;59745;52.924;-2.388;2022-07-05T06:03:15;2;2;
71872;PMS5003;59745;52.924;-2.388;2022-07-05T06:05:40;1;1;
71872;PMS5003;59745;52.924;-2.388;2022-07-05T06:08:05;0;0;
71872;PMS5003;59745;52.924;-2.388;2022-07-05T06:10:30;1;1;
71872;PMS5003;59745;52.924;-2.388;2022-07-05T06:12:56;2;2;
71872;PMS5003;59745;52.924;-2.388;2022-07-05T06:15:20;2;2;
71872;PMS5003;59745;52.924;-2.388;2022-07-05T06:17:45;4;2;
71872;PMS5003;59745;52.924;-2.388;2022-07-05T06:20:11;1;1;
71872;PMS5003;59745;52.924;-2.388;2022-07-05T06:22:36;3;2;
71872;PMS5003;59745;52.924;-2.388;2022-07-05T06:25:01;2;2;
71872;PMS5003;59745;52.924;-2.388;2022-07-05T06:27:26;2;2;
71872;PMS5003;59745;52.924;-2.388;2022-07-05T06:29:51;2;2;
71872;PMS5003;59745;52.924;-2.388;2022-07-05T06:32:16;2;2;
71872;PMS5003;59745;52.924;-2.388;2022-07-05T06:34:41;3;2;
71872;PMS5003;59745;52.924;-2.388;2022-07-05T06:37:06;1;1;
71872;PMS5003;59745;52.924;-2.388;2022-07-05T06:39:32;2;2;
71872;PMS5003;59745;52.924;-2.388;2022-07-05T06:41:57;2;2;
71872;PMS5003;59745;52.924;-2.388;2022-07-05T06:44:22;2;2;
71872;PMS5003;59745;52.924;-2.388;2022-07-05T06:46:47;4;1;
71872;PMS5003;59745;52.924;-2.388;2022-07-05T06:49:12;4;2;
71872;PMS5003;59745;52.924;-2.388;2022-07-05T06:51:37;2;2;
71872;PMS5003;59745;52.924;-2.388;2022-07-05T06:54:02;2;2;
71872;PMS5003;59745;52.924;-2.388;2022-07-05T06:56:27;3;3;
71872;PMS5003;59745;52.924;-2.388;2022-07-05T06:58:52;1;1;
71872;PMS5003;59745;52.924;-2.388;2022-07-05T07:01:17;2;2;
71872;PMS5003;59745;52.924;-2.388;2022-07-05T07:03:43;2;2;
71872;PMS5003;59745;52.924;-2.388;2022-07-05T07:06:08;1;1;
71872;PMS5003;59745;52.924;-2.388;2022-07-05T07:08:33;3;2;
71872;PMS5003;59745;52.924;-2.388;2022-07-05T07:10:58;3;3;
71872;PMS5003;59745;52.924;-2.388;2022-07-05T07:13:23;3;2;
71872;PMS5003;59745;52.924;-2.388;2022-07-05T07:15:48;3;3;
71872;PMS5003;59745;52.924;-2.388;2022-07-05T07:18:13;5;4;
71872;PMS5003;59745;52.924;-2.388;2022-07-05T07:20:39;3;2;
71872;PMS5003;59745;52.924;-2.388;2022-07-05T07:23:04;4;2;
71872;PMS5003;59745;52.924;-2.388;2022-07-05T07:25:29;2;2;
71872;PMS5003;59745;52.924;-2.388;2022-07-05T07:27:54;3;2;
71872;PMS5003;59745;52.924;-2.388;2022-07-05T07:30:20;2;2;
71872;PMS5003;59745;52.924;-2.388;2022-07-05T07:32:44;4;3;
71872;PMS5003;59745;52.924;-2.388;2022-07-05T07:35:10;3;3;
71872;PMS5003;59745;52.924;-2.388;2022-07-05T07:37:35;4;3;
71872;PMS5003;59745;52.924;-2.388;2022-07-05T07:40:00;3;3;
71872;PMS5003;59745;52.924;-2.388;2022-07-05T07:42:25;5;4;
71872;PMS5003;59745;52.924;-2.388;2022-07-05T07:44:50;3;1;
71872;PMS5003;59745;52.924;-2.388;2022-07-05T07:47:15;4;4;
71872;PMS5003;59745;52.924;-2.388;2022-07-05T07:49:40;4;4;
71872;PMS5003;59745;52.924;-2.388;2022-07-05T07:52:05;3;2;
71872;PMS5003;59745;52.924;-2.388;2022-07-05T07:54:30;2;2;
71872;PMS5003;59745;52.924;-2.388;2022-07-05T07:56:55;5;4;
71872;PMS5003;59745;52.924;-2.388;2022-07-05T07:59:20;4;3;
71872;PMS5003;59745;52.924;-2.388;2022-07-05T08:01:46;6;4;
71872;PMS5003;59745;52.924;-2.388;2022-07-05T08:04:11;2;2;
71872;PMS5003;59745;52.924;-2.388;2022-07-05T08:06:36;6;3;
71872;PMS5003;59745;52.924;-2.388;2022-07-05T08:09:01;6;5;
71872;PMS5003;59745;52.924;-2.388;2022-07-05T08:11:26;6;3;
71872;PMS5003;59745;52.924;-2.388;2022-07-05T08:13:51;3;3;
71872;PMS5003;59745;52.924;-2.388;2022-07-05T08:16:16;4;4;
71872;PMS5003;59745;52.924;-2.388;2022-07-05T08:18:42;4;4;
71872;PMS5003;59745;52.924;-2.388;2022-07-05T08:21:07;3;2;
71872;PMS5003;59745;52.924;-2.388;2022-07-05T08:23:32;4;3;
71872;PMS5003;59745;52.924;-2.388;2022-07-05T08:25:57;2;2;
71872;PMS5003;59745;52.924;-2.388;2022-07-05T08:28:22;3;3;
71872;PMS5003;59745;52.924;-2.388;2022-07-05T08:30:47;5;3;
71872;PMS5003;59745;52.924;-2.388;2022-07-05T08:33:12;4;3;
71872;PMS5003;59745;52.924;-2.388;2022-07-05T08:35:37;5;5;
71872;PMS5003;59745;52.924;-2.388;2022-07-05T08:38:03;4;3;
71872;PMS5003;59745;52.924;-2.388;2022-07-05T08:40:28;6;6;
71872;PMS5003;59745;52.924;-2.388;2022-07-05T08:42:54;7;6;
71872;PMS5003;59745;52.924;-2.388;2022-07-05T08:45:18;5;5;
71872;PMS5003;59745;52.924;-2.388;2022-07-05T08:47:43;5;5;
71872;PMS5003;59745;52.924;-2.388;2022-07-05T08:50:08;7;5;
71872;PMS5003;59745;52.924;-2.388;2022-07-05T08:52:33;7;6;
71872;PMS5003;59745;52.924;-2.388;2022-07-05T08:54:58;5;5;
71872;PMS5003;59745;52.924;-2.388;2022-07-05T08:57:23;5;5;
71872;PMS5003;59745;52.924;-2.388;2022-07-05T08:59:49;9;8;
71872;PMS5003;59745;52.924;-2.388;2022-07-05T09:02:15;6;5;
71872;PMS5003;59745;52.924;-2.388;2022-07-05T09:04:41;8;6;
71872;PMS5003;59745;52.924;-2.388;2022-07-05T09:07:04;4;3;
71872;PMS5003;59745;52.924;-2.388;2022-07-05T09:09:29;4;4;
71872;PMS5003;59745;52.924;-2.388;2022-07-05T09:11:54;4;4;
71872;PMS5003;59745;52.924;-2.388;2022-07-05T09:14:20;6;4;
71872;PMS5003;59745;52.924;-2.388;2022-07-05T09:16:45;4;3;
71872;PMS5003;59745;52.924;-2.388;2022-07-05T09:19:10;4;4;
71872;PMS5003;59745;52.924;-2.388;2022-07-05T09:21:35;3;3;
71872;PMS5003;59745;52.924;-2.388;2022-07-05T09:24:01;4;4;
71872;PMS5003;59745;52.924;-2.388;2022-07-05T09:26:26;4;3;
71872;PMS5003;59745;52.924;-2.388;2022-07-05T09:28:54;4;4;
71872;PMS5003;59745;52.924;-2.388;2022-07-05T09:31:19;6;5;
71872;PMS5003;59745;52.924;-2.388;2022-07-05T09:36:06;5;5;
71872;PMS5003;59745;52.924;-2.388;2022-07-05T09:38:30;5;5;
71872;PMS5003;59745;52.924;-2.388;2022-07-05T09:40:56;6;5;
71872;PMS5003;59745;52.924;-2.388;2022-07-05T09:43:21;5;5;
71872;PMS5003;59745;52.924;-2.388;2022-07-05T09:45:50;4;4;
71872;PMS5003;59745;52.924;-2.388;2022-07-05T09:48:11;5;5;
71872;PMS5003;59745;52.924;-2.388;2022-07-05T09:50:36;4;4;
71872;PMS5003;59745;52.924;-2.388;2022-07-05T09:53:01;6;5;
71872;PMS5003;59745;52.924;-2.388;2022-07-05T09:55:26;5;4;
71872;PMS5003;59745;52.924;-2.388;2022-07-05T09:57:51;5;3;
71872;PMS5003;59745;52.924;-2.388;2022-07-05T10:00:17;4;4;
71872;PMS5003;59745;52.924;-2.388;2022-07-05T10:02:42;3;3;
71872;PMS5003;59745;52.924;-2.388;2022-07-05T10:05:07;2;2;
71872;PMS5003;59745;52.924;-2.388;2022-07-05T10:07:32;4;4;
71872;PMS5003;59745;52.924;-2.388;2022-07-05T10:09:57;3;3;
71872;PMS5003;59745;52.924;-2.388;2022-07-05T10:12:22;4;2;
71872;PMS5003;59745;52.924;-2.388;2022-07-05T10:14:47;3;3;
71872;PMS5003;59745;52.924;-2.388;2022-07-05T10:17:12;4;4;
71872;PMS5003;59745;52.924;-2.388;2022-07-05T10:19:38;3;3;
71872;PMS5003;59745;52.924;-2.388;2022-07-05T10:22:02;3;3;
71872;PMS5003;59745;52.924;-2.388;2022-07-05T10:24:30;2;2;
71872;PMS5003;59745;52.924;-2.388;2022-07-05T10:26:52;4;3;
71872;PMS5003;59745;52.924;-2.388;2022-07-05T10:29:17;3;3;
71872;PMS5003;59745;52.924;-2.388;2022-07-05T10:31:43;4;4;
71872;PMS5003;59745;52.924;-2.388;2022-07-05T10:34:08;4;4;
71872;PMS5003;59745;52.924;-2.388;2022-07-05T10:36:33;3;3;
71872;PMS5003;59745;52.924;-2.388;2022-07-05T10:38:58;4;3;
71872;PMS5003;59745;52.924;-2.388;2022-07-05T10:41:23;4;4;
71872;PMS5003;59745;52.924;-2.388;2022-07-05T10:43:52;3;3;
71872;PMS5003;59745;52.924;-2.388;2022-07-05T10:46:14;2;2;
71872;PMS5003;59745;52.924;-2.388;2022-07-05T10:48:38;1;1;
71872;PMS5003;59745;52.924;-2.388;2022-07-05T10:53:29;1;1;
71872;PMS5003;59745;52.924;-2.388;2022-07-05T10:55:55;2;2;
71872;PMS5003;59745;52.924;-2.388;2022-07-05T10:58:23;2;2;
71872;PMS5003;59745;52.924;-2.388;2022-07-05T11:00:43;0;0;
71872;PMS5003;59745;52.924;-2.388;2022-07-05T11:03:10;2;2;
71872;PMS5003;59745;52.924;-2.388;2022-07-05T11:05:34;1;0;
71872;PMS5003;59745;52.924;-2.388;2022-07-05T11:07:59;0;0;
71872;PMS5003;59745;52.924;-2.388;2022-07-05T11:10:24;0;0;
71872;PMS5003;59745;52.924;-2.388;2022-07-05T11:12:49;0;0;
71872;PMS5003;59745;52.924;-2.388;2022-07-05T11:15:14;1;1;
71872;PMS5003;59745;52.924;-2.388;2022-07-05T11:17:39;2;1;
71872;PMS5003;59745;52.924;-2.388;2022-07-05T11:20:05;1;1;
71872;PMS5003;59745;52.924;-2.388;2022-07-05T11:22:29;3;3;
71872;PMS5003;59745;52.924;-2.388;2022-07-05T11:24:55;1;1;
71872;PMS5003;59745;52.924;-2.388;2022-07-05T11:27:19;5;3;
71872;PMS5003;59745;52.924;-2.388;2022-07-05T11:29:45;2;2;
71872;PMS5003;59745;52.924;-2.388;2022-07-05T11:32:10;2;2;
71872;PMS5003;59745;52.924;-2.388;2022-07-05T11:34:34;4;3;
71872;PMS5003;59745;52.924;-2.388;2022-07-05T11:39:25;7;7;
71872;PMS5003;59745;52.924;-2.388;2022-07-05T11:41:50;6;6;
71872;PMS5003;59745;52.924;-2.388;2022-07-05T11:44:15;4;4;
71872;PMS5003;59745;52.924;-2.388;2022-07-05T11:46:40;8;7;
71872;PMS5003;59745;52.924;-2.388;2022-07-05T11:49:05;6;6;
71872;PMS5003;59745;52.924;-2.388;2022-07-05T11:51:30;6;6;
71872;PMS5003;59745;52.924;-2.388;2022-07-05T11:53:55;6;6;
71872;PMS5003;59745;52.924;-2.388;2022-07-05T11:56:20;6;6;
71872;PMS5003;59745;52.924;-2.388;2022-07-05T11:58:45;6;6;
71872;PMS5003;59745;52.924;-2.388;2022-07-05T12:01:10;5;5;
71872;PMS5003;59745;52.924;-2.388;2022-07-05T12:03:35;6;6;
71872;PMS5003;59745;52.924;-2.388;2022-07-05T12:08:25;4;4;
71872;PMS5003;59745;52.924;-2.388;2022-07-05T12:10:51;2;2;
71872;PMS5003;59745;52.924;-2.388;2022-07-05T12:13:16;3;3;
71872;PMS5003;59745;52.924;-2.388;2022-07-05T12:15:40;2;2;
71872;PMS5003;59745;52.924;-2.388;2022-07-05T12:18:06;4;4;
71872;PMS5003;59745;52.924;-2.388;2022-07-05T12:20:31;5;5;
71872;PMS5003;59745;52.924;-2.388;2022-07-05T12:22:56;4;4;
71872;PMS5003;59745;52.924;-2.388;2022-07-05T12:25:21;3;3;
71872;PMS5003;59745;52.924;-2.388;2022-07-05T12:27:47;4;4;
71872;PMS5003;59745;52.924;-2.388;2022-07-05T12:30:11;2;2;
71872;PMS5003;59745;52.924;-2.388;2022-07-05T12:35:01;2;2;
71872;PMS5003;59745;52.924;-2.388;2022-07-05T12:37:26;3;3;
71872;PMS5003;59745;52.924;-2.388;2022-07-05T12:44:41;1;1;
71872;PMS5003;59745;52.924;-2.388;2022-07-05T12:47:06;2;2;
71872;PMS5003;59745;52.924;-2.388;2022-07-05T12:49:31;0;0;
71872;PMS5003;59745;52.924;-2.388;2022-07-05T12:52:02;1;1;
71872;PMS5003;59745;52.924;-2.388;2022-07-05T12:54:22;0;0;
71872;PMS5003;59745;52.924;-2.388;2022-07-05T12:56:47;1;1;
71872;PMS5003;59745;52.924;-2.388;2022-07-05T12:59:11;2;2;
71872;PMS5003;59745;52.924;-2.388;2022-07-05T13:01:37;1;1;
71872;PMS5003;59745;52.924;-2.388;2022-07-05T13:04:02;2;2;
71872;PMS5003;59745;52.924;-2.388;2022-07-05T13:08:56;1;1;
71872;PMS5003;59745;52.924;-2.388;2022-07-05T13:13:41;0;0;
71872;PMS5003;59745;52.924;-2.388;2022-07-05T13:16:06;1;0;
71872;PMS5003;59745;52.924;-2.388;2022-07-05T13:18:31;1;1;
71872;PMS5003;59745;52.924;-2.388;2022-07-05T13:20:56;1;1;
71872;PMS5003;59745;52.924;-2.388;2022-07-05T13:23:21;0;0;
71872;PMS5003;59745;52.924;-2.388;2022-07-05T13:25:47;0;0;
71872;PMS5003;59745;52.924;-2.388;2022-07-05T13:28:12;0;0;
71872;PMS5003;59745;52.924;-2.388;2022-07-05T13:30:37;0;0;
71872;PMS5003;59745;52.924;-2.388;2022-07-05T13:33:02;0;0;
71872;PMS5003;59745;52.924;-2.388;2022-07-05T13:35:27;0;0;
71872;PMS5003;59745;52.924;-2.388;2022-07-05T13:37:52;0;0;
71872;PMS5003;59745;52.924;-2.388;2022-07-05T13:40:17;0;0;
71872;PMS5003;59745;52.924;-2.388;2022-07-05T13:42:42;0;0;
71872;PMS5003;59745;52.924;-2.388;2022-07-05T13:45:07;0;0;
71872;PMS5003;59745;52.924;-2.388;2022-07-05T13:47:32;0;0;
71872;PMS5003;59745;52.924;-2.388;2022-07-05T13:49:57;0;0;
71872;PMS5003;59745;52.924;-2.388;2022-07-05T13:52:23;0;0;
71872;PMS5003;59745;52.924;-2.388;2022-07-05T13:54:49;1;1;
71872;PMS5003;59745;52.924;-2.388;2022-07-05T13:57:14;0;0;
71872;PMS5003;59745;52.924;-2.388;2022-07-05T13:59:39;0;0;
71872;PMS5003;59745;52.924;-2.388;2022-07-05T14:02:04;0;0;
71872;PMS5003;59745;52.924;-2.388;2022-07-05T14:04:29;0;0;
71872;PMS5003;59745;52.924;-2.388;2022-07-05T14:06:54;0;0;
71872;PMS5003;59745;52.924;-2.388;2022-07-05T14:09:19;0;0;
71872;PMS5003;59745;52.924;-2.388;2022-07-05T14:11:44;0;0;
71872;PMS5003;59745;52.924;-2.388;2022-07-05T14:14:09;0;0;
71872;PMS5003;59745;52.924;-2.388;2022-07-05T14:16:34;0;0;
71872;PMS5003;59745;52.924;-2.388;2022-07-05T14:18:59;0;0;
71872;PMS5003;59745;52.924;-2.388;2022-07-05T14:21:24;0;0;
71872;PMS5003;59745;52.924;-2.388;2022-07-05T14:23:49;0;0;
71872;PMS5003;59745;52.924;-2.388;2022-07-05T14:26:14;0;0;
71872;PMS5003;59745;52.924;-2.388;2022-07-05T14:28:39;0;0;
71872;PMS5003;59745;52.924;-2.388;2022-07-05T14:31:04;0;0;
71872;PMS5003;59745;52.924;-2.388;2022-07-05T14:33:29;1;1;
71872;PMS5003;59745;52.924;-2.388;2022-07-05T14:35:54;0;0;
71872;PMS5003;59745;52.924;-2.388;2022-07-05T14:38:19;0;0;
71872;PMS5003;59745;52.924;-2.388;2022-07-05T14:40:44;0;0;
71872;PMS5003;59745;52.924;-2.388;2022-07-05T14:43:10;1;0;
71872;PMS5003;59745;52.924;-2.388;2022-07-05T14:45:35;0;0;
71872;PMS5003;59745;52.924;-2.388;2022-07-05T14:48:00;0;0;
71872;PMS5003;59745;52.924;-2.388;2022-07-05T14:50:25;0;0;
71872;PMS5003;59745;52.924;-2.388;2022-07-05T14:52:50;0;0;
71872;PMS5003;59745;52.924;-2.388;2022-07-05T14:55:15;1;1;
71872;PMS5003;59745;52.924;-2.388;2022-07-05T14:57:40;0;0;
71872;PMS5003;59745;52.924;-2.388;2022-07-05T15:00:06;0;0;
71872;PMS5003;59745;52.924;-2.388;2022-07-05T15:02:30;0;0;
71872;PMS5003;59745;52.924;-2.388;2022-07-05T15:04:55;0;0;
71872;PMS5003;59745;52.924;-2.388;2022-07-05T15:07:21;1;1;
71872;PMS5003;59745;52.924;-2.388;2022-07-05T15:09:46;0;0;
71872;PMS5003;59745;52.924;-2.388;2022-07-05T15:12:11;0;0;
71872;PMS5003;59745;52.924;-2.388;2022-07-05T15:14:36;0;0;
71872;PMS5003;59745;52.924;-2.388;2022-07-05T15:17:01;0;0;
71872;PMS5003;59745;52.924;-2.388;2022-07-05T15:19:26;0;0;
71872;PMS5003;59745;52.924;-2.388;2022-07-05T15:21:51;0;0;
71872;PMS5003;59745;52.924;-2.388;2022-07-05T15:24:16;2;2;
71872;PMS5003;59745;52.924;-2.388;2022-07-05T15:26:41;0;0;
71872;PMS5003;59745;52.924;-2.388;2022-07-05T15:29:08;0;0;
71872;PMS5003;59745;52.924;-2.388;2022-07-05T15:31:31;1;0;
71872;PMS5003;59745;52.924;-2.388;2022-07-05T15:33:56;0;0;
71872;PMS5003;59745;52.924;-2.388;2022-07-05T15:36:21;0;0;
71872;PMS5003;59745;52.924;-2.388;2022-07-05T15:38:47;1;1;
71872;PMS5003;59745;52.924;-2.388;2022-07-05T15:41:12;0;0;
71872;PMS5003;59745;52.924;-2.388;2022-07-05T15:43:37;1;1;
71872;PMS5003;59745;52.924;-2.388;2022-07-05T15:46:02;0;0;
71872;PMS5003;59745;52.924;-2.388;2022-07-05T15:48:27;0;0;
71872;PMS5003;59745;52.924;-2.388;2022-07-05T15:50:52;1;1;
71872;PMS5003;59745;52.924;-2.388;2022-07-05T15:53:17;0;0;
71872;PMS5003;59745;52.924;-2.388;2022-07-05T15:55:42;1;0;
71872;PMS5003;59745;52.924;-2.388;2022-07-05T15:58:07;1;1;
71872;PMS5003;59745;52.924;-2.388;2022-07-05T16:00:32;2;2;
71872;PMS5003;59745;52.924;-2.388;2022-07-05T16:02:57;3;1;
71872;PMS5003;59745;52.924;-2.388;2022-07-05T16:05:22;1;1;
71872;PMS5003;59745;52.924;-2.388;2022-07-05T16:07:47;1;1;
71872;PMS5003;59745;52.924;-2.388;2022-07-05T16:10:14;2;2;
71872;PMS5003;59745;52.924;-2.388;2022-07-05T16:12:37;1;1;
71872;PMS5003;59745;52.924;-2.388;2022-07-05T16:15:03;2;2;
71872;PMS5003;59745;52.924;-2.388;2022-07-05T16:17:28;2;1;
71872;PMS5003;59745;52.924;-2.388;2022-07-05T16:19:53;0;0;
71872;PMS5003;59745;52.924;-2.388;2022-07-05T16:22:18;1;1;
71872;PMS5003;59745;52.924;-2.388;2022-07-05T16:24:43;1;1;
71872;PMS5003;59745;52.924;-2.388;2022-07-05T16:27:08;2;1;
71872;PMS5003;59745;52.924;-2.388;2022-07-05T16:29:33;2;1;
71872;PMS5003;59745;52.924;-2.388;2022-07-05T16:31:58;1;1;
71872;PMS5003;59745;52.924;-2.388;2022-07-05T16:34:23;1;1;
71872;PMS5003;59745;52.924;-2.388;2022-07-05T16:36:48;0;0;
71872;PMS5003;59745;52.924;-2.388;2022-07-05T16:39:13;2;1;
71872;PMS5003;59745;52.924;-2.388;2022-07-05T16:41:38;1;1;
71872;PMS5003;59745;52.924;-2.388;2022-07-05T16:44:04;1;1;
71872;PMS5003;59745;52.924;-2.388;2022-07-05T16:46:28;2;1;
71872;PMS5003;59745;52.924;-2.388;2022-07-05T16:48:53;1;1;